createdAt,value
2022-11-06T00:00:58.970Z,1.30
2022-11-06T00:04:01.079Z,1.20
2022-11-06T00:07:02.891Z,0.90
2022-11-06T00:10:05.738Z,0.77
2022-11-06T00:13:07.925Z,0.90
2022-11-06T00:16:11.454Z,0.60
2022-11-06T00:19:13.893Z,0.80
2022-11-06T00:22:16.793Z,0.90
2022-11-06T00:25:19.184Z,1.50
2022-11-06T00:28:21.116Z,1.07
2022-11-06T00:31:25.500Z,0.90
2022-11-06T00:34:27.410Z,0.93
2022-11-06T00:37:29.285Z,1.00
2022-11-06T00:40:31.448Z,0.90
2022-11-06T00:43:33.950Z,0.73
2022-11-06T00:46:37.489Z,0.70
2022-11-06T00:49:39.628Z,0.50
2022-11-06T00:52:41.454Z,0.70
2022-11-06T00:55:43.549Z,0.70
2022-11-06T00:58:46.975Z,0.70
2022-11-06T01:01:49.700Z,0.80
2022-11-06T01:04:52.280Z,0.50
2022-11-06T01:07:54.169Z,0.60
2022-11-06T01:10:56.039Z,0.70
2022-11-06T01:14:00.054Z,0.90
2022-11-06T01:17:01.983Z,0.70
2022-11-06T01:20:05.189Z,0.80
2022-11-06T01:23:07.079Z,1.10
2022-11-06T01:26:11.885Z,0.90
2022-11-06T01:29:15.721Z,0.70
2022-11-06T01:32:18.588Z,1.03
2022-11-06T01:35:20.550Z,0.80
2022-11-06T01:38:22.788Z,0.80
2022-11-06T01:41:33.440Z,1.00
2022-11-06T01:44:41.585Z,0.70
2022-11-06T01:47:43.669Z,0.90
2022-11-06T01:50:49.468Z,0.90
2022-11-06T01:53:52.343Z,0.80
2022-11-06T01:56:56.464Z,1.63
2022-11-06T01:59:58.534Z,1.43
2022-11-06T02:03:01.863Z,1.40
2022-11-06T02:06:05.276Z,1.20
2022-11-06T02:09:12.714Z,0.90
2022-11-06T02:12:32.166Z,0.80
2022-11-06T02:15:54.269Z,0.80
2022-11-06T02:19:38.858Z,1.20
2022-11-06T02:22:43.514Z,1.60
2022-11-06T02:26:24.432Z,1.30
2022-11-06T02:29:34.043Z,1.70
2022-11-06T02:32:57.877Z,1.73
2022-11-06T02:36:02.573Z,1.40
2022-11-06T02:39:10.163Z,1.60
2022-11-06T02:42:13.252Z,2.00
2022-11-06T02:45:17.470Z,1.30
2022-11-06T02:48:23.333Z,1.93
2022-11-06T02:51:29.544Z,1.13
2022-11-06T02:54:35.236Z,1.40
2022-11-06T02:57:39.378Z,1.40
2022-11-06T03:00:44.623Z,1.70
2022-11-06T03:03:52.439Z,1.60
2022-11-06T03:07:23.599Z,1.47
2022-11-06T03:10:34.784Z,1.77
2022-11-06T03:13:40.307Z,1.87
2022-11-06T03:17:04.985Z,2.00
2022-11-06T03:20:32.171Z,1.60
2022-11-06T03:23:44.993Z,1.33
2022-11-06T03:26:51.792Z,2.00
2022-11-06T03:30:03.673Z,1.93
2022-11-06T03:33:14.219Z,2.03
2022-11-06T03:36:20.634Z,1.60
2022-11-06T03:39:30.914Z,1.87
2022-11-06T03:42:32.812Z,2.10
2022-11-06T03:45:35.544Z,1.87
2022-11-06T03:48:41.298Z,1.90
2022-11-06T03:51:53.404Z,1.10
2022-11-06T03:55:01.163Z,1.00
2022-11-06T03:58:06.938Z,1.40
2022-11-06T04:01:10.576Z,1.67
2022-11-06T04:04:17.721Z,1.63
2022-11-06T04:07:26.017Z,1.20
2022-11-06T04:10:46.520Z,1.80
2022-11-06T04:13:57.714Z,1.87
2022-11-06T04:17:04.931Z,1.70
2022-11-06T04:20:12.329Z,1.60
2022-11-06T04:24:11.556Z,1.53
2022-11-06T04:27:20.000Z,1.63
2022-11-06T04:30:22.040Z,1.57
2022-11-06T04:33:59.425Z,0.97
2022-11-06T04:37:12.856Z,1.70
2022-11-06T04:40:32.149Z,1.97
2022-11-06T04:43:53.240Z,2.00
2022-11-06T04:47:00.663Z,2.20
2022-11-06T04:50:03.309Z,2.57
2022-11-06T04:53:09.464Z,2.50
2022-11-06T04:56:14.876Z,2.17
2022-11-06T04:59:19.430Z,2.87
2022-11-06T05:02:21.431Z,2.30
2022-11-06T05:05:23.355Z,2.37
2022-11-06T05:08:25.279Z,2.30
2022-11-06T05:11:27.239Z,2.50
2022-11-06T05:14:29.455Z,2.20
2022-11-06T05:17:36.211Z,2.87
2022-11-06T05:20:38.530Z,2.73
2022-11-06T05:23:41.349Z,2.37
2022-11-06T05:26:43.390Z,2.53
2022-11-06T05:29:45.825Z,2.73
2022-11-06T05:32:48.490Z,1.53
2022-11-06T05:35:51.206Z,1.43
2022-11-06T05:38:53.105Z,1.20
2022-11-06T05:41:54.976Z,1.17
2022-11-06T05:44:57.160Z,1.40
2022-11-06T05:47:59.145Z,1.20
2022-11-06T05:51:03.725Z,1.40
2022-11-06T05:54:05.660Z,1.27
2022-11-06T05:57:07.637Z,0.80
2022-11-06T06:00:10.803Z,1.10
2022-11-06T06:03:13.013Z,1.30
2022-11-06T06:06:15.030Z,1.67
2022-11-06T06:09:17.529Z,1.90
2022-11-06T06:12:19.892Z,1.70
2022-11-06T06:15:21.708Z,1.67
2022-11-06T06:18:24.318Z,1.70
2022-11-06T06:21:26.251Z,1.67
2022-11-06T06:24:28.200Z,1.40
2022-11-06T06:27:31.400Z,1.30
2022-11-06T06:30:36.180Z,1.30
2022-11-06T06:33:38.096Z,1.10
2022-11-06T06:36:40.036Z,0.93
2022-11-06T06:39:41.951Z,1.20
2022-11-06T06:42:43.926Z,1.17
2022-11-06T06:45:45.849Z,1.23
2022-11-06T06:48:48.045Z,1.77
2022-11-06T06:51:50.601Z,1.63
2022-11-06T06:54:52.874Z,1.40
2022-11-06T06:57:59.186Z,1.10
2022-11-06T07:01:02.773Z,1.40
2022-11-06T07:04:04.976Z,1.80
2022-11-06T07:07:06.900Z,1.57
2022-11-06T07:10:08.920Z,1.40
2022-11-06T07:13:11.327Z,1.03
2022-11-06T07:16:13.538Z,1.00
2022-11-06T07:19:15.502Z,1.83
2022-11-06T07:22:20.260Z,1.77
2022-11-06T07:25:26.435Z,2.13
2022-11-06T07:28:28.306Z,1.93
2022-11-06T07:31:31.743Z,1.87
2022-11-06T07:34:34.451Z,2.17
2022-11-06T07:37:37.416Z,1.97
2022-11-06T07:40:39.275Z,2.10
2022-11-06T07:43:42.318Z,1.70
2022-11-06T07:46:44.235Z,2.10
2022-11-06T07:49:50.694Z,2.50
2022-11-06T07:52:53.611Z,1.80
2022-11-06T07:55:57.094Z,1.83
2022-11-06T07:58:59.031Z,1.87
2022-11-06T08:02:01.108Z,1.60
2022-11-06T08:05:03.530Z,1.60
2022-11-06T08:08:05.718Z,1.80
2022-11-06T08:11:09.486Z,1.93
2022-11-06T08:14:12.286Z,1.57
2022-11-06T08:17:14.146Z,1.60
2022-11-06T08:20:16.141Z,1.60
2022-11-06T08:23:18.100Z,2.03
2022-11-06T08:26:21.116Z,1.30
2022-11-06T08:29:23.110Z,1.27
2022-11-06T08:32:25.076Z,1.53
2022-11-06T08:35:26.961Z,5.27
2022-11-06T08:38:29.004Z,2.07
2022-11-06T08:41:30.871Z,1.30
2022-11-06T08:44:33.170Z,1.73
2022-11-06T08:47:35.177Z,1.43
2022-11-06T08:50:40.504Z,3.13
2022-11-06T08:53:42.460Z,3.83
2022-11-06T08:56:44.443Z,1.40
2022-11-06T08:59:46.300Z,1.40
2022-11-06T09:02:48.220Z,1.13
2022-11-06T09:05:50.121Z,1.13
2022-11-06T09:08:52.105Z,1.40
2022-11-06T09:11:54.040Z,1.50
2022-11-06T09:14:55.995Z,1.07
2022-11-06T09:17:57.863Z,1.27
2022-11-06T09:20:59.836Z,1.17
2022-11-06T09:24:02.538Z,0.90
2022-11-06T09:27:04.796Z,1.40
2022-11-06T09:30:07.539Z,1.37
2022-11-06T09:33:13.528Z,1.27
2022-11-06T09:36:15.806Z,1.27
2022-11-06T09:39:18.395Z,1.10
2022-11-06T09:42:43.214Z,1.10
2022-11-06T09:45:49.863Z,1.27
2022-11-06T09:49:19.652Z,1.30
2022-11-06T09:52:39.198Z,0.93
2022-11-06T09:55:42.677Z,1.03
2022-11-06T09:58:45.196Z,1.10
2022-11-06T10:01:51.290Z,1.30
2022-11-06T10:05:06.660Z,0.70
2022-11-06T10:08:27.247Z,0.40
2022-11-06T10:11:44.707Z,0.70
2022-11-06T10:15:01.780Z,0.57
2022-11-06T10:18:03.723Z,0.80
2022-11-06T10:21:20.337Z,0.60
2022-11-06T10:24:33.342Z,0.53
2022-11-06T10:27:41.343Z,0.50
2022-11-06T10:31:21.887Z,3.10
2022-11-06T10:34:38.206Z,0.57
2022-11-06T10:38:21.259Z,0.90
2022-11-06T10:41:26.662Z,0.50
2022-11-06T10:44:40.939Z,0.53
2022-11-06T10:47:51.556Z,0.80
2022-11-06T10:51:19.837Z,0.40
2022-11-06T10:54:53.512Z,0.50
2022-11-06T10:58:01.884Z,0.40
2022-11-06T11:01:05.202Z,0.30
2022-11-06T11:04:07.983Z,0.50
2022-11-06T11:07:21.651Z,0.57
2022-11-06T11:10:24.386Z,0.40
2022-11-06T11:13:26.392Z,0.50
2022-11-06T11:16:32.857Z,0.20
2022-11-06T11:19:38.553Z,0.40
2022-11-06T11:22:41.058Z,0.20
2022-11-06T11:25:45.537Z,0.37
2022-11-06T11:29:31.397Z,0.40
2022-11-06T11:32:34.578Z,0.40
2022-11-06T11:35:38.825Z,0.40
2022-11-06T11:38:42.237Z,0.30
2022-11-06T11:41:44.672Z,0.40
2022-11-06T11:44:46.548Z,0.40
2022-11-06T11:47:51.676Z,0.30
2022-11-06T11:50:53.663Z,0.33
2022-11-06T11:54:05.042Z,0.30
2022-11-06T11:57:08.933Z,0.43
2022-11-06T12:00:19.952Z,0.70
2022-11-06T12:03:23.150Z,0.40
2022-11-06T12:06:25.053Z,0.40
2022-11-06T12:09:28.657Z,0.40
2022-11-06T12:12:33.425Z,0.60
2022-11-06T12:15:49.951Z,0.40
2022-11-06T12:18:58.497Z,0.50
2022-11-06T12:22:06.342Z,0.30
2022-11-06T12:25:16.162Z,0.40
2022-11-06T12:28:19.843Z,0.70
2022-11-06T12:31:36.995Z,0.43
2022-11-06T12:34:45.304Z,0.50
2022-11-06T12:38:12.473Z,0.63
2022-11-06T12:41:14.859Z,0.40
2022-11-06T12:44:17.820Z,0.30
2022-11-06T12:47:28.866Z,0.47
2022-11-06T12:50:48.926Z,0.60
2022-11-06T12:54:01.185Z,0.40
2022-11-06T12:57:16.241Z,0.40
2022-11-06T13:00:26.024Z,0.50
2022-11-06T13:03:42.120Z,0.50
2022-11-06T13:07:15.116Z,0.50
2022-11-06T13:10:43.831Z,0.60
2022-11-06T13:13:57.620Z,0.70
2022-11-06T13:17:25.921Z,0.30
2022-11-06T13:20:44.058Z,0.57
2022-11-06T13:23:51.137Z,0.50
2022-11-06T13:27:00.066Z,0.83
2022-11-06T13:30:14.187Z,0.50
2022-11-06T13:33:28.315Z,0.50
2022-11-06T13:36:31.365Z,0.47
2022-11-06T13:39:37.245Z,0.40
2022-11-06T13:42:48.268Z,0.50
2022-11-06T13:46:08.138Z,0.47
2022-11-06T13:49:29.988Z,0.40
2022-11-06T13:52:39.825Z,0.40
2022-11-06T13:55:47.997Z,0.40
2022-11-06T13:59:04.490Z,0.50
2022-11-06T14:02:28.488Z,0.60
2022-11-06T14:05:33.577Z,1.83
2022-11-06T14:08:42.738Z,3.80
2022-11-06T14:11:46.095Z,1.33
2022-11-06T14:14:49.368Z,6.93
2022-11-06T14:18:01.274Z,5.47
2022-11-06T14:21:37.210Z,1.50
2022-11-06T14:24:41.201Z,0.57
2022-11-06T14:27:48.946Z,0.50
2022-11-06T14:31:11.661Z,0.50
2022-11-06T14:34:33.871Z,0.40
2022-11-06T14:37:45.466Z,0.50
2022-11-06T14:40:48.018Z,0.50
2022-11-06T14:43:51.986Z,0.50
2022-11-06T14:46:59.660Z,0.80
2022-11-06T14:50:05.577Z,0.27
2022-11-06T14:53:22.887Z,0.50
2022-11-06T14:56:31.177Z,0.50
2022-11-06T14:59:41.140Z,0.40
2022-11-06T15:02:43.926Z,0.30
2022-11-06T15:05:51.959Z,0.50
2022-11-06T15:08:58.245Z,0.40
2022-11-06T15:12:05.334Z,0.43
2022-11-06T15:15:17.456Z,0.43
2022-11-06T15:18:25.156Z,0.43
2022-11-06T15:21:30.816Z,0.37
2022-11-06T15:25:01.308Z,0.50
2022-11-06T15:28:12.313Z,0.60
2022-11-06T15:31:17.810Z,0.60
2022-11-06T15:34:36.662Z,1.40
2022-11-06T15:37:43.297Z,2.33
2022-11-06T15:40:45.639Z,1.73
2022-11-06T15:43:50.237Z,1.50
2022-11-06T15:46:57.513Z,1.00
2022-11-06T15:50:27.527Z,1.00
2022-11-06T15:53:30.726Z,1.10
2022-11-06T15:56:35.297Z,1.40
2022-11-06T15:59:37.542Z,0.83
2022-11-06T16:02:51.379Z,1.00
2022-11-06T16:05:55.796Z,0.80
2022-11-06T16:08:58.162Z,1.10
2022-11-06T16:12:00.202Z,1.47
2022-11-06T16:15:02.715Z,1.27
2022-11-06T16:18:12.674Z,1.70
2022-11-06T16:21:23.563Z,1.70
2022-11-06T16:24:28.052Z,1.40
2022-11-06T16:27:35.077Z,1.20
2022-11-06T16:30:36.977Z,0.97
2022-11-06T16:33:59.382Z,1.20
2022-11-06T16:37:04.541Z,1.37
2022-11-06T16:40:08.940Z,2.27
2022-11-06T16:43:15.958Z,2.33
2022-11-06T16:46:18.019Z,1.70
2022-11-06T16:49:37.558Z,1.30
2022-11-06T16:52:40.841Z,1.00
2022-11-06T16:55:42.742Z,0.80
2022-11-06T16:59:04.513Z,0.70
2022-11-06T17:02:10.559Z,0.77
2022-11-06T17:05:16.039Z,0.60
2022-11-06T17:08:17.867Z,0.50
2022-11-06T17:11:22.092Z,0.80
2022-11-06T17:14:24.651Z,0.80
2022-11-06T17:17:26.752Z,0.70
2022-11-06T17:20:30.101Z,0.60
2022-11-06T17:23:32.966Z,0.60
2022-11-06T17:26:35.085Z,1.37
2022-11-06T17:29:37.058Z,0.90
2022-11-06T17:32:39.061Z,1.63
2022-11-06T17:35:41.460Z,0.80
2022-11-06T17:38:44.313Z,0.93
2022-11-06T17:41:46.292Z,0.53
2022-11-06T17:44:48.287Z,0.73
2022-11-06T17:47:50.101Z,0.57
2022-11-06T17:51:11.114Z,0.70
2022-11-06T17:54:13.687Z,0.50
2022-11-06T17:57:21.228Z,1.03
2022-11-06T18:00:25.754Z,1.10
2022-11-06T18:03:31.168Z,1.50
2022-11-06T18:06:36.282Z,1.13
2022-11-06T18:09:38.217Z,1.67
2022-11-06T18:12:40.015Z,1.10
2022-11-06T18:15:42.010Z,0.93
2022-11-06T18:18:43.992Z,0.70
2022-11-06T18:21:46.144Z,0.67
2022-11-06T18:24:48.017Z,0.80
2022-11-06T18:27:49.932Z,0.70
2022-11-06T18:30:52.738Z,0.90
2022-11-06T18:33:54.767Z,1.20
2022-11-06T18:36:57.632Z,1.30
2022-11-06T18:39:59.819Z,2.17
2022-11-06T18:43:01.754Z,2.00
2022-11-06T18:46:08.197Z,1.23
2022-11-06T18:49:11.406Z,1.17
2022-11-06T18:52:19.830Z,1.10
2022-11-06T18:55:30.096Z,1.40
2022-11-06T18:58:32.292Z,1.00
2022-11-06T19:01:35.579Z,1.00
2022-11-06T19:04:38.459Z,1.17
2022-11-06T19:07:40.415Z,1.00
2022-11-06T19:10:42.732Z,0.90
2022-11-06T19:13:48.173Z,1.00
2022-11-06T19:16:51.122Z,0.80
2022-11-06T19:19:53.386Z,0.73
2022-11-06T19:22:55.817Z,0.77
2022-11-06T19:26:17.518Z,1.07
2022-11-06T19:29:19.619Z,0.73
2022-11-06T19:32:21.478Z,0.90
2022-11-06T19:35:23.447Z,0.67
2022-11-06T19:38:26.007Z,0.80
2022-11-06T19:41:28.858Z,0.60
2022-11-06T19:44:30.743Z,0.80
2022-11-06T19:47:33.133Z,0.70
2022-11-06T19:51:00.243Z,1.20
2022-11-06T19:53:57.266Z,0.50
2022-11-06T19:57:27.404Z,0.63
2022-11-06T20:00:21.130Z,1.10
2022-11-06T20:03:23.133Z,0.90
2022-11-06T20:06:27.636Z,0.43
2022-11-06T20:09:29.597Z,0.70
2022-11-06T20:12:31.572Z,1.20
2022-11-06T20:15:33.737Z,1.43
2022-11-06T20:18:37.454Z,1.60
2022-11-06T20:21:39.461Z,1.00
2022-11-06T20:24:42.298Z,1.00
2022-11-06T20:27:44.293Z,0.90
2022-11-06T20:30:47.192Z,0.50
2022-11-06T20:33:50.411Z,0.53
2022-11-06T20:36:53.240Z,0.70
2022-11-06T20:39:55.197Z,0.80
2022-11-06T20:42:57.689Z,0.50
2022-11-06T20:46:02.079Z,0.60
2022-11-06T20:49:05.028Z,0.80
2022-11-06T20:52:15.611Z,0.47
2022-11-06T20:55:19.605Z,0.60
2022-11-06T20:58:21.786Z,0.50
2022-11-06T21:01:28.714Z,0.50
2022-11-06T21:04:30.596Z,0.60
2022-11-06T21:07:33.426Z,0.63
2022-11-06T21:10:35.385Z,0.50
2022-11-06T21:13:38.575Z,0.40
2022-11-06T21:16:40.841Z,0.60
2022-11-06T21:19:42.817Z,0.80
2022-11-06T21:22:44.674Z,0.60
2022-11-06T21:25:46.903Z,0.70
2022-11-06T21:28:48.746Z,0.70
2022-11-06T21:31:52.312Z,0.70
2022-11-06T21:34:54.220Z,0.63
2022-11-06T21:37:56.817Z,0.57
2022-11-06T21:40:58.664Z,0.80
2022-11-06T21:44:02.313Z,0.50
2022-11-06T21:47:04.196Z,0.90
2022-11-06T21:50:06.926Z,0.53
2022-11-06T21:53:29.832Z,0.57
2022-11-06T21:56:36.393Z,0.70
2022-11-06T21:59:41.593Z,1.00
2022-11-06T22:02:44.177Z,0.63
2022-11-06T22:05:46.199Z,0.90
2022-11-06T22:08:49.032Z,0.80
2022-11-06T22:11:50.972Z,0.80
2022-11-06T22:14:52.876Z,0.70
2022-11-06T22:17:54.708Z,0.60
2022-11-06T22:21:12.181Z,0.80
2022-11-06T22:24:14.538Z,0.50
2022-11-06T22:27:16.436Z,0.60
2022-11-06T22:30:18.467Z,0.63
2022-11-06T22:33:20.407Z,0.60
2022-11-06T22:36:23.328Z,0.80
2022-11-06T22:39:25.700Z,0.70
2022-11-06T22:42:27.521Z,0.70
2022-11-06T22:45:38.839Z,0.83
2022-11-06T22:48:43.714Z,0.70
2022-11-06T22:51:45.728Z,0.40
2022-11-06T22:54:47.610Z,0.53
2022-11-06T22:57:50.061Z,0.53
2022-11-06T23:00:53.247Z,0.60
2022-11-06T23:03:59.058Z,0.70
2022-11-06T23:07:01.064Z,0.67
2022-11-06T23:10:03.017Z,0.70
2022-11-06T23:13:05.743Z,0.37
2022-11-06T23:16:10.453Z,0.60
2022-11-06T23:19:14.740Z,0.47
2022-11-06T23:22:35.208Z,0.50
2022-11-06T23:25:37.128Z,0.70
2022-11-06T23:28:39.042Z,0.70
2022-11-06T23:31:41.501Z,0.70
2022-11-06T23:34:43.512Z,0.43
2022-11-06T23:37:45.431Z,0.70
2022-11-06T23:40:47.385Z,0.83
2022-11-06T23:43:51.418Z,0.40
2022-11-06T23:46:53.447Z,0.60
2022-11-06T23:49:55.396Z,0.70
2022-11-06T23:52:57.407Z,0.67
2022-11-06T23:55:59.755Z,0.30
2022-11-06T23:59:01.717Z,0.43
